createdAt,value
2022-09-25T00:00:57.754Z,6.67
2022-09-25T00:01:59.619Z,5.13
2022-09-25T00:03:01.695Z,4.70
2022-09-25T00:04:04.341Z,4.90
2022-09-25T00:05:06.883Z,5.03
2022-09-25T00:06:17.535Z,6.00
2022-09-25T00:07:19.288Z,5.63
2022-09-25T00:08:21.109Z,6.13
2022-09-25T00:09:23.631Z,5.80
2022-09-25T00:10:25.489Z,5.17
2022-09-25T00:11:32.924Z,5.30
2022-09-25T00:12:35.911Z,5.13
2022-09-25T00:13:38.781Z,5.10
2022-09-25T00:14:40.917Z,5.03
2022-09-25T00:15:55.082Z,5.33
2022-09-25T00:16:56.915Z,5.23
2022-09-25T00:17:58.689Z,5.83
2022-09-25T00:19:19.979Z,5.80
2022-09-25T00:20:22.007Z,6.37
2022-09-25T00:21:24.644Z,4.73
2022-09-25T00:22:28.006Z,4.67
2022-09-25T00:23:29.717Z,3.97
2022-09-25T00:24:32.138Z,4.03
2022-09-25T00:25:33.873Z,4.57
2022-09-25T00:26:40.126Z,4.73
2022-09-25T00:27:44.349Z,4.43
2022-09-25T00:28:46.111Z,3.73
2022-09-25T00:29:47.930Z,3.60
2022-09-25T00:30:49.695Z,3.60
2022-09-25T00:31:51.447Z,3.90
2022-09-25T00:32:53.147Z,4.10
2022-09-25T00:33:59.551Z,4.40
2022-09-25T00:35:01.575Z,4.17
2022-09-25T00:36:08.602Z,4.37
2022-09-25T00:37:10.394Z,4.53
2022-09-25T00:38:12.104Z,4.50
2022-09-25T00:39:14.323Z,3.97
2022-09-25T00:40:16.331Z,4.77
2022-09-25T00:41:21.188Z,4.57
2022-09-25T00:42:23.624Z,5.70
2022-09-25T00:43:40.551Z,5.27
2022-09-25T00:45:23.667Z,4.37
2022-09-25T00:46:33.399Z,4.47
2022-09-25T00:48:06.520Z,4.70
2022-09-25T00:49:20.230Z,4.07
2022-09-25T00:50:36.575Z,4.90
2022-09-25T00:51:54.466Z,3.70
2022-09-25T00:53:05.419Z,4.20
2022-09-25T00:54:16.378Z,5.37
2022-09-25T00:55:18.774Z,3.80
2022-09-25T00:56:20.536Z,3.63
2022-09-25T00:57:26.966Z,4.17
2022-09-25T00:58:33.094Z,4.83
2022-09-25T00:59:44.697Z,4.13
2022-09-25T01:00:46.703Z,4.23
2022-09-25T01:01:49.028Z,3.47
2022-09-25T01:02:56.187Z,5.57
2022-09-25T01:03:59.056Z,3.87
2022-09-25T01:05:07.987Z,4.23
2022-09-25T01:06:12.096Z,3.83
2022-09-25T01:07:15.746Z,3.53
2022-09-25T01:08:24.586Z,3.60
2022-09-25T01:09:27.353Z,3.87
2022-09-25T01:10:29.383Z,4.20
2022-09-25T01:11:32.042Z,4.17
2022-09-25T01:12:39.082Z,4.60
2022-09-25T01:13:41.253Z,4.27
2022-09-25T01:14:43.887Z,4.30
2022-09-25T01:15:59.374Z,4.30
2022-09-25T01:17:07.530Z,4.00
2022-09-25T01:18:31.131Z,5.60
2022-09-25T01:19:53.887Z,4.40
2022-09-25T01:21:30.050Z,4.40
2022-09-25T01:23:26.381Z,6.07
2022-09-25T01:24:53.839Z,7.10
2022-09-25T01:26:15.779Z,5.80
2022-09-25T01:27:42.063Z,4.23
2022-09-25T01:29:33.000Z,4.20
2022-09-25T01:30:44.437Z,5.70
2022-09-25T01:32:13.968Z,5.00
2022-09-25T01:33:24.310Z,6.93
2022-09-25T01:34:58.123Z,6.03
2022-09-25T01:36:13.307Z,6.03
2022-09-25T01:37:30.498Z,5.20
2022-09-25T01:38:55.956Z,5.00
2022-09-25T01:40:33.664Z,5.00
2022-09-25T01:41:50.819Z,4.60
2022-09-25T01:43:01.379Z,4.97
2022-09-25T01:44:13.328Z,5.63
2022-09-25T01:45:30.271Z,5.03
2022-09-25T01:46:42.601Z,4.60
2022-09-25T01:47:50.131Z,6.10
2022-09-25T01:49:02.399Z,4.93
2022-09-25T01:50:20.695Z,4.10
2022-09-25T01:51:29.626Z,4.93
2022-09-25T01:52:49.652Z,4.90
2022-09-25T01:53:58.982Z,5.87
2022-09-25T01:55:10.617Z,5.00
2022-09-25T01:56:34.624Z,5.63
2022-09-25T01:58:10.901Z,6.07
2022-09-25T01:59:28.527Z,5.40
2022-09-25T02:00:32.296Z,5.13
2022-09-25T02:01:41.655Z,5.20
2022-09-25T02:02:55.142Z,4.97
2022-09-25T02:04:10.390Z,5.80
2022-09-25T02:05:36.070Z,4.60
2022-09-25T02:06:43.439Z,5.20
2022-09-25T02:07:56.725Z,5.67
2022-09-25T02:09:07.363Z,4.67
2022-09-25T02:10:23.693Z,5.40
2022-09-25T02:11:35.873Z,5.30
2022-09-25T02:12:46.353Z,5.50
2022-09-25T02:13:58.078Z,5.60
2022-09-25T02:15:10.419Z,5.40
2022-09-25T02:16:21.886Z,5.13
2022-09-25T02:18:00.118Z,6.57
2022-09-25T02:19:21.095Z,5.37
2022-09-25T02:20:34.409Z,4.60
2022-09-25T02:21:58.840Z,5.57
2022-09-25T02:23:28.942Z,4.93
2022-09-25T02:25:12.483Z,4.60
2022-09-25T02:26:25.884Z,4.80
2022-09-25T02:27:29.319Z,5.00
2022-09-25T02:28:31.454Z,4.77
2022-09-25T02:29:33.521Z,7.60
2022-09-25T02:30:35.960Z,5.17
2022-09-25T02:31:59.308Z,5.33
2022-09-25T02:33:01.057Z,6.37
2022-09-25T02:34:04.247Z,5.67
2022-09-25T02:35:06.626Z,5.60
2022-09-25T02:36:19.000Z,5.10
2022-09-25T02:37:20.756Z,5.10
2022-09-25T02:38:22.559Z,5.40
2022-09-25T02:39:30.000Z,5.13
2022-09-25T02:40:48.614Z,5.27
2022-09-25T02:41:56.416Z,5.13
2022-09-25T02:43:35.321Z,6.03
2022-09-25T02:45:04.961Z,5.57
2022-09-25T02:46:29.565Z,6.53
2022-09-25T02:48:09.158Z,7.17
2022-09-25T02:49:36.992Z,5.60
2022-09-25T02:51:09.888Z,5.27
2022-09-25T02:52:18.493Z,4.93
2022-09-25T02:53:48.560Z,5.30
2022-09-25T02:55:51.601Z,5.30
2022-09-25T02:57:04.916Z,5.30
2022-09-25T02:58:30.010Z,5.40
2022-09-25T02:59:38.573Z,5.27
2022-09-25T03:00:46.095Z,5.23
2022-09-25T03:01:49.128Z,5.37
2022-09-25T03:02:59.902Z,5.63
2022-09-25T03:04:05.122Z,5.50
2022-09-25T03:05:13.213Z,5.47
2022-09-25T03:06:15.830Z,5.53
2022-09-25T03:07:19.213Z,5.87
2022-09-25T03:08:38.020Z,5.17
2022-09-25T03:09:46.302Z,5.43
2022-09-25T03:10:48.296Z,5.90
2022-09-25T03:11:50.051Z,5.60
2022-09-25T03:12:51.744Z,5.73
2022-09-25T03:14:02.973Z,5.70
2022-09-25T03:15:05.992Z,6.33
2022-09-25T03:16:25.261Z,6.63
2022-09-25T03:17:27.509Z,6.53
2022-09-25T03:18:31.363Z,6.97
2022-09-25T03:19:34.723Z,6.73
2022-09-25T03:20:36.536Z,5.97
2022-09-25T03:21:38.344Z,6.40
2022-09-25T03:22:40.034Z,6.37
2022-09-25T03:23:42.011Z,6.60
2022-09-25T03:24:43.770Z,6.57
2022-09-25T03:25:49.882Z,6.73
2022-09-25T03:26:53.884Z,7.93
2022-09-25T03:27:55.592Z,6.67
2022-09-25T03:29:02.280Z,7.33
2022-09-25T03:30:06.032Z,6.63
2022-09-25T03:31:11.365Z,7.27
2022-09-25T03:32:13.949Z,6.57
2022-09-25T03:33:17.518Z,7.07
2022-09-25T03:34:19.897Z,6.97
2022-09-25T03:35:21.589Z,7.83
2022-09-25T03:36:27.970Z,7.67
2022-09-25T03:37:29.902Z,7.60
2022-09-25T03:38:32.233Z,9.80
2022-09-25T03:39:33.925Z,8.00
2022-09-25T03:40:36.819Z,8.73
2022-09-25T03:41:38.541Z,8.00
2022-09-25T03:42:40.291Z,10.67
2022-09-25T03:43:43.664Z,8.77
2022-09-25T03:44:45.412Z,8.87
2022-09-25T03:45:47.202Z,9.00
2022-09-25T03:46:48.915Z,11.30
2022-09-25T03:47:50.864Z,10.10
2022-09-25T03:48:53.929Z,8.90
2022-09-25T03:49:55.636Z,8.50
2022-09-25T03:50:58.187Z,8.03
2022-09-25T03:52:00.187Z,8.00
2022-09-25T03:53:01.877Z,10.03
2022-09-25T03:54:04.082Z,10.07
2022-09-25T03:55:06.898Z,7.80
2022-09-25T03:56:14.677Z,9.87
2022-09-25T03:57:16.451Z,9.80
2022-09-25T03:58:18.710Z,8.50
2022-09-25T03:59:20.454Z,9.10
2022-09-25T04:00:23.947Z,9.57
2022-09-25T04:01:27.580Z,8.63
2022-09-25T04:02:29.611Z,10.23
2022-09-25T04:03:33.704Z,9.07
2022-09-25T04:04:37.508Z,7.93
2022-09-25T04:05:39.436Z,9.50
2022-09-25T04:06:41.211Z,9.03
2022-09-25T04:07:43.110Z,8.90
2022-09-25T04:08:46.945Z,9.00
2022-09-25T04:09:48.738Z,9.27
2022-09-25T04:10:50.502Z,9.17
2022-09-25T04:11:52.201Z,8.40
2022-09-25T04:12:54.373Z,9.20
2022-09-25T04:13:56.841Z,8.87
2022-09-25T04:14:58.548Z,12.73
2022-09-25T04:16:03.504Z,10.10
2022-09-25T04:17:05.288Z,10.80
2022-09-25T04:18:06.998Z,9.57
2022-09-25T04:19:08.708Z,9.30
2022-09-25T04:20:10.397Z,9.27
2022-09-25T04:21:14.499Z,9.53
2022-09-25T04:22:16.200Z,9.07
2022-09-25T04:23:18.313Z,8.50
2022-09-25T04:24:38.536Z,9.43
2022-09-25T04:25:40.248Z,8.43
2022-09-25T04:26:42.003Z,10.53
2022-09-25T04:27:46.155Z,8.97
2022-09-25T04:28:47.943Z,9.77
2022-09-25T04:29:50.200Z,9.27
2022-09-25T04:30:52.693Z,9.70
2022-09-25T04:32:12.906Z,10.10
2022-09-25T04:33:33.962Z,9.07
2022-09-25T04:34:35.781Z,10.37
2022-09-25T04:35:37.991Z,9.80
2022-09-25T04:36:39.709Z,9.93
2022-09-25T04:37:41.565Z,9.23
2022-09-25T04:38:43.926Z,10.17
2022-09-25T04:39:45.664Z,9.83
2022-09-25T04:40:47.448Z,16.27
2022-09-25T04:41:49.217Z,10.63
2022-09-25T04:43:00.391Z,11.17
2022-09-25T04:44:05.382Z,10.80
2022-09-25T04:45:07.465Z,11.33
2022-09-25T04:46:16.716Z,10.27
2022-09-25T04:47:25.243Z,12.50
2022-09-25T04:48:26.953Z,12.23
2022-09-25T04:49:29.192Z,12.60
2022-09-25T04:50:31.848Z,11.07
2022-09-25T04:51:33.563Z,9.80
2022-09-25T04:52:35.519Z,24.40
2022-09-25T04:53:37.384Z,23.40
2022-09-25T04:54:39.269Z,18.30
2022-09-25T04:55:40.975Z,15.93
2022-09-25T04:56:45.730Z,14.93
2022-09-25T04:57:58.827Z,13.53
2022-09-25T04:59:00.915Z,11.50
2022-09-25T05:00:03.278Z,12.37
2022-09-25T05:01:09.016Z,14.47
2022-09-25T05:02:12.338Z,11.90
2022-09-25T05:03:14.312Z,11.03
2022-09-25T05:04:16.206Z,12.63
2022-09-25T05:05:19.745Z,10.93
2022-09-25T05:06:22.918Z,10.90
2022-09-25T05:07:24.783Z,9.73
2022-09-25T05:08:27.775Z,11.47
2022-09-25T05:09:30.631Z,11.60
2022-09-25T05:10:39.632Z,13.23
2022-09-25T05:11:41.559Z,11.50
2022-09-25T05:12:43.314Z,12.53
2022-09-25T05:13:46.391Z,14.80
2022-09-25T05:14:48.121Z,12.20
2022-09-25T05:15:50.034Z,12.10
2022-09-25T05:16:52.262Z,11.47
2022-09-25T05:18:22.085Z,10.97
2022-09-25T05:19:23.947Z,10.80
2022-09-25T05:20:25.805Z,11.77
2022-09-25T05:21:27.525Z,10.80
2022-09-25T05:22:29.310Z,10.00
2022-09-25T05:23:31.098Z,12.37
2022-09-25T05:24:32.926Z,9.43
2022-09-25T05:25:35.072Z,9.17
2022-09-25T05:26:37.899Z,10.77
2022-09-25T05:27:39.612Z,10.87
2022-09-25T05:28:41.345Z,13.43
2022-09-25T05:29:43.046Z,12.47
2022-09-25T05:30:44.773Z,12.70
2022-09-25T05:31:48.756Z,10.90
2022-09-25T05:32:52.594Z,10.80
2022-09-25T05:33:54.957Z,10.70
2022-09-25T05:34:56.758Z,11.80
2022-09-25T05:36:07.308Z,10.20
2022-09-25T05:37:09.047Z,11.87
2022-09-25T05:38:10.840Z,10.00
2022-09-25T05:39:14.651Z,12.27
2022-09-25T05:40:19.403Z,11.60
2022-09-25T05:41:21.504Z,13.27
2022-09-25T05:42:23.284Z,15.67
2022-09-25T05:43:25.342Z,14.50
2022-09-25T05:44:28.273Z,9.90
2022-09-25T05:45:30.004Z,12.17
2022-09-25T05:46:31.803Z,12.47
2022-09-25T05:47:33.549Z,13.27
2022-09-25T05:48:35.579Z,11.97
2022-09-25T05:49:37.282Z,11.00
2022-09-25T05:50:39.019Z,13.23
2022-09-25T05:51:40.725Z,11.27
2022-09-25T05:52:43.210Z,12.93
2022-09-25T05:53:44.916Z,11.50
2022-09-25T05:54:46.716Z,11.37
2022-09-25T05:55:58.251Z,11.20
2022-09-25T05:57:00.032Z,11.13
2022-09-25T05:58:05.118Z,11.80
2022-09-25T05:59:06.829Z,11.53
2022-09-25T06:00:10.087Z,11.97
2022-09-25T06:01:11.836Z,11.60
2022-09-25T06:02:13.613Z,14.80
2022-09-25T06:03:16.264Z,11.87
2022-09-25T06:04:18.086Z,12.33
2022-09-25T06:05:20.083Z,10.57
2022-09-25T06:06:26.647Z,11.27
2022-09-25T06:07:29.459Z,9.80
2022-09-25T06:08:31.596Z,10.67
2022-09-25T06:09:33.363Z,11.90
2022-09-25T06:10:35.550Z,10.23
2022-09-25T06:11:37.306Z,10.53
2022-09-25T06:12:39.027Z,13.07
2022-09-25T06:13:42.611Z,10.90
2022-09-25T06:14:44.665Z,11.03
2022-09-25T06:15:46.441Z,12.30
2022-09-25T06:16:51.072Z,10.93
2022-09-25T06:17:52.786Z,10.43
2022-09-25T06:18:54.573Z,11.13
2022-09-25T06:19:56.289Z,9.53
2022-09-25T06:21:05.055Z,10.37
2022-09-25T06:22:06.781Z,11.17
2022-09-25T06:23:08.504Z,13.03
2022-09-25T06:24:10.859Z,11.40
2022-09-25T06:25:15.281Z,9.93
2022-09-25T06:26:17.059Z,13.77
2022-09-25T06:27:18.768Z,10.03
2022-09-25T06:28:20.559Z,10.77
2022-09-25T06:29:22.260Z,11.60
2022-09-25T06:30:27.545Z,13.63
2022-09-25T06:31:30.290Z,12.27
2022-09-25T06:32:32.063Z,12.70
2022-09-25T06:33:34.004Z,11.17
2022-09-25T06:34:35.706Z,11.70
2022-09-25T06:35:45.318Z,14.20
2022-09-25T06:36:47.106Z,12.63
2022-09-25T06:37:48.818Z,14.47
2022-09-25T06:38:54.897Z,12.60
2022-09-25T06:39:56.731Z,13.27
2022-09-25T06:41:00.441Z,16.43
2022-09-25T06:42:03.069Z,12.27
2022-09-25T06:43:07.134Z,11.90
2022-09-25T06:44:09.085Z,12.30
2022-09-25T06:45:11.435Z,10.33
2022-09-25T06:46:13.236Z,10.17
2022-09-25T06:47:18.459Z,12.40
2022-09-25T06:48:22.049Z,11.13
2022-09-25T06:49:23.858Z,12.80
2022-09-25T06:50:31.519Z,14.23
2022-09-25T06:51:35.361Z,11.43
2022-09-25T06:52:44.521Z,12.90
2022-09-25T06:53:46.350Z,10.03
2022-09-25T06:54:48.057Z,14.27
2022-09-25T06:55:50.949Z,13.80
2022-09-25T06:56:52.688Z,12.00
2022-09-25T06:57:54.443Z,13.37
2022-09-25T06:58:56.380Z,10.90
2022-09-25T06:59:58.229Z,13.30
2022-09-25T07:00:59.994Z,11.73
2022-09-25T07:02:21.858Z,11.33
2022-09-25T07:03:42.689Z,11.33
2022-09-25T07:04:44.430Z,13.00
2022-09-25T07:05:48.400Z,12.67
2022-09-25T07:06:50.385Z,10.90
2022-09-25T07:07:52.184Z,12.03
2022-09-25T07:08:56.239Z,12.00
2022-09-25T07:09:57.968Z,12.03
2022-09-25T07:11:01.499Z,14.90
2022-09-25T07:12:03.259Z,16.07
2022-09-25T07:13:05.471Z,12.87
2022-09-25T07:14:09.288Z,11.43
2022-09-25T07:15:11.785Z,11.50
2022-09-25T07:16:17.565Z,13.07
2022-09-25T07:17:19.404Z,11.50
2022-09-25T07:18:23.752Z,13.53
2022-09-25T07:19:27.747Z,14.37
2022-09-25T07:20:30.292Z,13.33
2022-09-25T07:21:32.261Z,12.03
2022-09-25T07:22:34.230Z,10.77
2022-09-25T07:23:36.686Z,12.77
2022-09-25T07:24:38.969Z,12.63
2022-09-25T07:25:41.192Z,11.87
2022-09-25T07:26:43.407Z,11.80
2022-09-25T07:27:45.626Z,11.93
2022-09-25T07:28:47.475Z,10.27
2022-09-25T07:29:49.182Z,9.33
2022-09-25T07:30:50.917Z,10.73
2022-09-25T07:31:52.740Z,13.87
2022-09-25T07:32:59.801Z,11.20
2022-09-25T07:34:08.806Z,10.20
2022-09-25T07:35:10.931Z,9.80
2022-09-25T07:36:14.294Z,10.33
2022-09-25T07:37:16.869Z,11.97
2022-09-25T07:38:19.437Z,10.10
2022-09-25T07:39:21.204Z,9.03
2022-09-25T07:40:24.118Z,12.10
2022-09-25T07:41:26.301Z,9.13
2022-09-25T07:42:28.033Z,13.43
2022-09-25T07:43:29.754Z,11.40
2022-09-25T07:44:37.471Z,9.83
2022-09-25T07:45:39.934Z,9.23
2022-09-25T07:46:43.431Z,10.50
2022-09-25T07:47:45.209Z,12.33
2022-09-25T07:48:50.378Z,11.77
2022-09-25T07:49:52.120Z,11.30
2022-09-25T07:50:55.546Z,10.40
2022-09-25T07:51:57.314Z,9.17
2022-09-25T07:52:59.842Z,8.93
2022-09-25T07:54:01.589Z,9.30
2022-09-25T07:55:03.342Z,8.97
2022-09-25T07:56:07.174Z,11.20
2022-09-25T07:57:09.225Z,10.90
2022-09-25T07:58:11.943Z,8.80
2022-09-25T07:59:13.697Z,10.10
2022-09-25T08:00:15.687Z,10.00
2022-09-25T08:01:17.561Z,8.93
2022-09-25T08:02:19.483Z,8.70
2022-09-25T08:03:21.812Z,8.07
2022-09-25T08:04:23.562Z,5.90
2022-09-25T08:05:27.260Z,4.80
2022-09-25T08:06:29.056Z,4.07
2022-09-25T08:07:30.921Z,3.83
2022-09-25T08:08:34.618Z,3.97
2022-09-25T08:09:36.421Z,3.87
2022-09-25T08:10:38.204Z,3.33
2022-09-25T08:11:39.970Z,3.40
2022-09-25T08:12:43.152Z,3.47
2022-09-25T08:13:46.261Z,4.03
2022-09-25T08:14:48.015Z,4.00
2022-09-25T08:15:49.868Z,3.67
2022-09-25T08:16:55.901Z,3.90
2022-09-25T08:17:57.761Z,3.37
2022-09-25T08:18:59.526Z,3.60
2022-09-25T08:20:01.809Z,3.23
2022-09-25T08:21:05.089Z,3.40
2022-09-25T08:22:06.831Z,3.27
2022-09-25T08:23:08.561Z,3.70
2022-09-25T08:24:10.795Z,3.50
2022-09-25T08:25:12.969Z,3.40
2022-09-25T08:26:19.133Z,3.30
2022-09-25T08:27:20.876Z,3.37
2022-09-25T08:28:23.179Z,3.70
2022-09-25T08:29:24.932Z,3.27
2022-09-25T08:30:26.716Z,2.87
2022-09-25T08:31:28.687Z,2.97
2022-09-25T08:32:34.306Z,3.40
2022-09-25T08:33:37.306Z,3.03
2022-09-25T08:34:41.715Z,3.20
2022-09-25T08:35:44.180Z,3.00
2022-09-25T08:36:50.074Z,2.90
2022-09-25T08:37:51.843Z,3.07
2022-09-25T08:38:56.304Z,2.40
2022-09-25T08:39:59.915Z,2.80
2022-09-25T08:41:08.785Z,3.33
2022-09-25T08:42:23.087Z,2.53
2022-09-25T08:43:28.106Z,2.77
2022-09-25T08:45:22.180Z,2.97
2022-09-25T08:47:04.991Z,2.90
2022-09-25T08:48:56.351Z,2.87
2022-09-25T08:50:14.504Z,2.77
2022-09-25T08:51:16.873Z,3.40
2022-09-25T08:52:22.694Z,3.63
2022-09-25T08:53:26.361Z,3.13
2022-09-25T08:54:31.953Z,3.20
2022-09-25T08:55:58.878Z,3.83
2022-09-25T08:57:16.273Z,4.13
2022-09-25T08:58:29.673Z,3.10
2022-09-25T08:59:40.622Z,3.23
2022-09-25T09:00:45.224Z,3.10
2022-09-25T09:01:54.713Z,2.93
2022-09-25T09:02:59.325Z,3.27
2022-09-25T09:04:19.609Z,2.90
2022-09-25T09:05:29.906Z,3.10
2022-09-25T09:06:34.407Z,3.07
2022-09-25T09:07:44.164Z,2.50
2022-09-25T09:09:00.079Z,3.10
2022-09-25T09:10:38.042Z,2.53
2022-09-25T09:11:57.660Z,2.60
2022-09-25T09:13:22.461Z,2.90
2022-09-25T09:14:31.363Z,2.77
2022-09-25T09:15:46.603Z,3.40
2022-09-25T09:17:10.475Z,3.73
2022-09-25T09:18:37.462Z,3.50
2022-09-25T09:19:39.195Z,2.50
2022-09-25T09:21:08.044Z,2.53
2022-09-25T09:22:12.565Z,3.83
2022-09-25T09:23:20.826Z,3.60
2022-09-25T09:24:46.155Z,3.90
2022-09-25T09:26:08.961Z,3.33
2022-09-25T09:27:36.185Z,3.37
2022-09-25T09:29:19.103Z,2.97
2022-09-25T09:30:34.729Z,2.60
2022-09-25T09:32:01.686Z,2.97
2022-09-25T09:33:47.238Z,2.80
2022-09-25T09:35:06.445Z,2.70
2022-09-25T09:36:37.630Z,3.07
2022-09-25T09:37:41.948Z,3.03
2022-09-25T09:39:14.347Z,2.93
2022-09-25T09:41:10.261Z,3.30
2022-09-25T09:42:21.785Z,4.43
2022-09-25T09:43:43.020Z,3.27
2022-09-25T09:44:54.298Z,3.50
2022-09-25T09:46:08.366Z,3.50
2022-09-25T09:47:45.207Z,3.13
2022-09-25T09:49:17.047Z,3.53
2022-09-25T09:50:51.409Z,3.47
2022-09-25T09:52:01.374Z,3.90
2022-09-25T09:53:27.904Z,3.60
2022-09-25T09:54:50.586Z,3.20
2022-09-25T09:56:01.106Z,3.27
2022-09-25T09:57:14.823Z,4.03
2022-09-25T09:58:58.305Z,3.67
2022-09-25T10:00:18.047Z,3.80
2022-09-25T10:01:41.797Z,4.17
2022-09-25T10:03:01.466Z,3.73
2022-09-25T10:04:11.064Z,3.77
2022-09-25T10:05:32.547Z,4.13
2022-09-25T10:06:43.283Z,3.83
2022-09-25T10:07:48.783Z,3.80
2022-09-25T10:08:50.529Z,6.33
2022-09-25T10:09:54.725Z,4.40
2022-09-25T10:10:59.194Z,5.13
2022-09-25T10:12:12.144Z,8.80
2022-09-25T10:13:38.184Z,10.50
2022-09-25T10:14:45.739Z,12.47
2022-09-25T10:15:57.987Z,12.20
2022-09-25T10:17:01.993Z,7.23
2022-09-25T10:18:04.671Z,6.10
2022-09-25T10:19:19.171Z,4.83
2022-09-25T10:20:24.878Z,4.67
2022-09-25T10:21:51.628Z,4.27
2022-09-25T10:22:58.377Z,4.40
2022-09-25T10:24:02.988Z,3.83
2022-09-25T10:25:06.463Z,4.10
2022-09-25T10:26:38.114Z,3.77
2022-09-25T10:27:48.886Z,3.83
2022-09-25T10:28:51.049Z,3.57
2022-09-25T10:30:25.153Z,4.10
2022-09-25T10:31:33.608Z,3.70
2022-09-25T10:32:42.082Z,3.87
2022-09-25T10:34:13.870Z,3.53
2022-09-25T10:35:24.342Z,2.83
2022-09-25T10:36:53.067Z,2.97
2022-09-25T10:38:00.255Z,1.80
2022-09-25T10:39:39.165Z,1.70
2022-09-25T10:40:38.183Z,2.10
2022-09-25T10:41:44.262Z,2.00
2022-09-25T10:42:46.013Z,2.07
2022-09-25T10:43:58.219Z,2.13
2022-09-25T10:45:00.062Z,2.23
2022-09-25T10:46:14.770Z,2.67
2022-09-25T10:47:38.116Z,2.70
2022-09-25T10:49:00.005Z,2.23
2022-09-25T10:50:26.990Z,2.63
2022-09-25T10:51:29.268Z,2.60
2022-09-25T10:52:52.179Z,2.67
2022-09-25T10:54:13.570Z,3.10
2022-09-25T10:55:21.175Z,2.90
2022-09-25T10:56:35.927Z,2.80
2022-09-25T10:57:38.904Z,3.43
2022-09-25T10:58:54.809Z,2.77
2022-09-25T10:59:59.392Z,2.93
2022-09-25T11:01:03.921Z,3.00
2022-09-25T11:02:40.388Z,3.00
2022-09-25T11:03:55.205Z,2.70
2022-09-25T11:04:58.098Z,2.60
2022-09-25T11:06:20.793Z,2.77
2022-09-25T11:07:27.150Z,2.43
2022-09-25T11:08:34.335Z,2.83
2022-09-25T11:09:44.445Z,2.30
2022-09-25T11:10:58.847Z,2.60
2022-09-25T11:12:18.637Z,2.60
2022-09-25T11:13:26.100Z,2.43
2022-09-25T11:14:35.489Z,2.40
2022-09-25T11:15:39.106Z,2.47
2022-09-25T11:16:48.680Z,2.37
2022-09-25T11:17:56.373Z,3.90
2022-09-25T11:19:31.278Z,2.30
2022-09-25T11:20:33.178Z,2.73
2022-09-25T11:22:00.089Z,2.43
2022-09-25T11:23:29.265Z,3.20
2022-09-25T11:25:06.982Z,2.87
2022-09-25T11:26:31.255Z,2.73
2022-09-25T11:27:54.407Z,3.37
2022-09-25T11:29:23.430Z,3.10
2022-09-25T11:30:31.068Z,3.27
2022-09-25T11:31:37.696Z,2.97
2022-09-25T11:32:43.503Z,3.13
2022-09-25T11:34:17.928Z,3.00
2022-09-25T11:35:55.449Z,3.20
2022-09-25T11:37:23.029Z,3.23
2022-09-25T11:39:14.061Z,3.60
2022-09-25T11:40:56.073Z,3.27
2022-09-25T11:42:09.143Z,3.33
2022-09-25T11:43:16.859Z,3.20
2022-09-25T11:44:54.147Z,3.63
2022-09-25T11:46:07.356Z,3.20
2022-09-25T11:47:36.575Z,3.80
2022-09-25T11:48:59.055Z,3.43
2022-09-25T11:50:02.107Z,4.20
2022-09-25T11:51:43.649Z,4.70
2022-09-25T11:53:13.815Z,10.83
2022-09-25T11:54:59.482Z,10.07
2022-09-25T11:56:24.480Z,6.17
2022-09-25T11:57:53.147Z,4.10
2022-09-25T11:59:38.351Z,3.87
2022-09-25T12:01:13.311Z,4.00
2022-09-25T12:02:57.914Z,3.27
2022-09-25T12:04:14.880Z,4.00
2022-09-25T12:05:59.924Z,4.00
2022-09-25T12:07:40.780Z,4.33
2022-09-25T12:09:03.481Z,3.40
2022-09-25T12:10:35.172Z,3.37
2022-09-25T12:12:32.825Z,3.37
2022-09-25T12:14:14.022Z,3.00
2022-09-25T12:15:52.539Z,2.80
2022-09-25T12:17:56.146Z,3.13
2022-09-25T12:19:17.824Z,3.00
2022-09-25T12:20:40.513Z,3.10
2022-09-25T12:22:16.121Z,2.90
2022-09-25T12:23:38.843Z,3.30
2022-09-25T12:25:02.015Z,3.17
2022-09-25T12:26:39.327Z,3.13
2022-09-25T12:27:52.874Z,2.93
2022-09-25T12:29:37.159Z,2.97
2022-09-25T12:31:17.333Z,2.43
2022-09-25T12:33:25.671Z,2.93
2022-09-25T12:34:52.550Z,2.77
2022-09-25T12:36:08.819Z,2.97
2022-09-25T12:37:43.601Z,2.97
2022-09-25T12:39:01.931Z,2.60
2022-09-25T12:40:32.044Z,2.70
2022-09-25T12:41:50.924Z,2.80
2022-09-25T12:43:04.934Z,2.77
2022-09-25T12:44:29.733Z,2.70
2022-09-25T12:45:49.471Z,2.70
2022-09-25T12:47:15.586Z,2.73
2022-09-25T12:48:44.058Z,2.80
2022-09-25T12:50:03.799Z,2.70
2022-09-25T12:51:29.698Z,2.73
2022-09-25T12:52:44.878Z,2.50
2022-09-25T12:54:23.197Z,2.70
2022-09-25T12:56:09.637Z,2.70
2022-09-25T12:57:37.115Z,2.43
2022-09-25T12:59:00.940Z,2.10
2022-09-25T13:00:24.063Z,2.17
2022-09-25T13:01:45.886Z,2.50
2022-09-25T13:03:22.577Z,2.30
2022-09-25T13:05:23.968Z,2.33
2022-09-25T13:06:59.687Z,2.37
2022-09-25T13:08:19.192Z,2.50
2022-09-25T13:09:43.557Z,1.93
2022-09-25T13:10:59.185Z,2.57
2022-09-25T13:12:30.892Z,2.73
2022-09-25T13:13:45.262Z,2.27
2022-09-25T13:15:04.716Z,2.33
2022-09-25T13:16:06.757Z,2.73
2022-09-25T13:17:15.223Z,2.37
2022-09-25T13:18:24.166Z,2.50
2022-09-25T13:19:29.577Z,2.47
2022-09-25T13:20:35.068Z,2.70
2022-09-25T13:21:45.592Z,2.63
2022-09-25T13:22:47.653Z,2.80
2022-09-25T13:23:54.070Z,2.70
2022-09-25T13:25:14.102Z,2.97
2022-09-25T13:26:24.321Z,2.50
2022-09-25T13:27:26.643Z,2.63
2022-09-25T13:29:04.318Z,2.60
2022-09-25T13:30:07.114Z,2.80
2022-09-25T13:31:21.181Z,3.07
2022-09-25T13:32:30.638Z,2.40
2022-09-25T13:33:50.165Z,3.10
2022-09-25T13:34:58.766Z,3.00
2022-09-25T13:36:40.507Z,3.10
2022-09-25T13:37:42.547Z,2.80
2022-09-25T13:39:04.830Z,2.70
2022-09-25T13:40:43.871Z,2.73
2022-09-25T13:41:58.953Z,3.17
2022-09-25T13:43:24.254Z,3.37
2022-09-25T13:44:43.658Z,3.80
2022-09-25T13:45:45.473Z,3.80
2022-09-25T13:46:47.232Z,3.50
2022-09-25T13:48:30.240Z,3.70
2022-09-25T13:49:35.939Z,3.50
2022-09-25T13:50:46.609Z,3.80
2022-09-25T13:51:48.349Z,5.70
2022-09-25T13:53:09.971Z,4.10
2022-09-25T13:54:11.657Z,3.57
2022-09-25T13:55:13.308Z,3.43
2022-09-25T13:56:21.394Z,3.60
2022-09-25T13:57:55.730Z,3.40
2022-09-25T13:59:15.508Z,3.80
2022-09-25T14:00:17.821Z,3.20
2022-09-25T14:01:53.961Z,3.27
2022-09-25T14:03:01.457Z,3.30
2022-09-25T14:04:15.252Z,3.70
2022-09-25T14:05:21.779Z,3.37
2022-09-25T14:06:29.980Z,4.03
2022-09-25T14:07:33.765Z,3.70
2022-09-25T14:08:41.564Z,3.77
2022-09-25T14:09:50.405Z,4.10
2022-09-25T14:10:57.060Z,3.87
2022-09-25T14:12:16.031Z,3.70
2022-09-25T14:13:23.517Z,3.60
2022-09-25T14:14:53.070Z,3.60
2022-09-25T14:16:00.632Z,3.57
2022-09-25T14:17:04.671Z,3.90
2022-09-25T14:18:23.932Z,3.93
2022-09-25T14:19:36.381Z,3.60
2022-09-25T14:20:51.838Z,3.60
2022-09-25T14:21:55.220Z,3.30
2022-09-25T14:23:02.558Z,3.37
2022-09-25T14:24:29.010Z,3.20
2022-09-25T14:25:33.722Z,3.63
2022-09-25T14:26:35.429Z,3.20
2022-09-25T14:27:37.468Z,2.80
2022-09-25T14:28:48.312Z,2.77
2022-09-25T14:29:50.512Z,1.93
2022-09-25T14:31:15.581Z,1.63
2022-09-25T14:32:50.712Z,1.10
2022-09-25T14:34:58.361Z,1.10
2022-09-25T14:36:22.217Z,1.10
2022-09-25T14:37:44.715Z,1.13
2022-09-25T14:39:09.098Z,1.10
2022-09-25T14:40:34.128Z,1.30
2022-09-25T14:42:18.622Z,1.27
2022-09-25T14:43:57.423Z,1.30
2022-09-25T14:45:34.257Z,1.40
2022-09-25T14:46:36.683Z,1.10
2022-09-25T14:47:47.270Z,1.10
2022-09-25T14:49:00.875Z,1.30
2022-09-25T14:50:04.492Z,1.37
2022-09-25T14:51:16.036Z,1.10
2022-09-25T14:52:27.424Z,1.03
2022-09-25T14:53:38.683Z,1.30
2022-09-25T14:54:47.193Z,1.30
2022-09-25T14:55:52.978Z,1.30
2022-09-25T14:56:57.849Z,1.53
2022-09-25T14:58:01.729Z,1.93
2022-09-25T14:59:13.191Z,1.47
2022-09-25T15:00:20.702Z,1.60
2022-09-25T15:01:32.323Z,1.43
2022-09-25T15:02:41.555Z,1.40
2022-09-25T15:03:48.871Z,1.23
2022-09-25T15:04:51.037Z,1.40
2022-09-25T15:05:53.057Z,1.70
2022-09-25T15:07:19.996Z,1.80
2022-09-25T15:08:38.160Z,1.63
2022-09-25T15:09:48.816Z,1.80
2022-09-25T15:11:21.213Z,1.80
2022-09-25T15:12:35.990Z,2.30
2022-09-25T15:13:37.835Z,2.00
2022-09-25T15:14:39.608Z,3.73
2022-09-25T15:16:02.089Z,2.27
2022-09-25T15:17:23.582Z,2.17
2022-09-25T15:18:25.717Z,2.40
2022-09-25T15:19:42.524Z,2.57
2022-09-25T15:20:48.579Z,2.33
2022-09-25T15:21:54.006Z,2.50
2022-09-25T15:23:02.952Z,3.03
2022-09-25T15:24:14.062Z,3.13
2022-09-25T15:25:26.750Z,2.90
2022-09-25T15:26:31.563Z,2.77
2022-09-25T15:27:37.416Z,2.70
2022-09-25T15:28:41.099Z,3.13
2022-09-25T15:29:46.230Z,3.70
2022-09-25T15:31:00.532Z,2.70
2022-09-25T15:32:05.024Z,2.80
2022-09-25T15:33:19.719Z,2.90
2022-09-25T15:34:26.294Z,2.87
2022-09-25T15:35:30.261Z,2.80
2022-09-25T15:36:32.009Z,3.10
2022-09-25T15:37:33.842Z,3.27
2022-09-25T15:38:38.741Z,2.83
2022-09-25T15:39:42.974Z,3.37
2022-09-25T15:40:55.763Z,3.23